Time;durP1;ratioP1;P1;durP2;ratioP2;P2;SDS_P1;SDS_P2;PMS_P1;PMS_P2;Temp;Humidity;BMP_temperature;BMP_pressure;BME280_temperature;BME280_humidity;BME280_pressure;Samples;Min_cycle;Max_cycle;Signal;HPM_P1;HPM_P2
2022/08/22 00:00:12;;;;;;;0.20;0.00;;;23.00;99.90;;;;;;26177006;22;20187;-72
2022/08/22 00:10:23;;;;;;;0.20;0.00;;;23.00;99.90;;;;;;26176602;22;20678;-71
2022/08/22 00:20:35;;;;;;;0.20;0.00;;;22.90;99.90;;;;;;26177368;22;20179;-71
2022/08/22 00:30:48;;;;;;;0.20;0.00;;;22.80;99.90;;;;;;26176172;22;20167;-70
2022/08/22 00:40:59;;;;;;;0.20;0.00;;;22.90;99.90;;;;;;26146395;22;20194;-72
2022/08/22 00:51:41;;;;;;;0.20;0.10;;;22.90;99.90;;;;;;26175650;22;20171;-72
2022/08/22 01:01:54;;;;;;;0.20;0.00;;;23.10;99.90;;;;;;26176077;22;20547;-72
2022/08/22 01:12:27;;;;;;;0.20;0.00;;;23.10;99.90;;;;;;26173884;22;20197;-72
2022/08/22 01:23:17;;;;;;;0.20;0.00;;;23.00;99.90;;;;;;26148196;22;20194;-71
2022/08/22 01:33:59;;;;;;;0.20;0.00;;;23.00;99.90;;;;;;26146979;22;20186;-71
2022/08/22 01:44:20;;;;;;;0.20;0.00;;;22.90;99.90;;;;;;26172063;22;20223;-71
2022/08/22 01:54:37;;;;;;;0.20;0.00;;;23.00;99.90;;;;;;26173153;22;20160;-72
2022/08/22 02:04:47;;;;;;;0.20;0.00;;;23.10;99.90;;;;;;26173312;22;20195;-71
2022/08/22 02:15:02;;;;;;;0.20;0.00;;;23.10;99.90;;;;;;26143978;22;20194;-71
2022/08/22 02:25:15;;;;;;;0.20;0.00;;;23.20;99.90;;;;;;26170001;22;20179;-71
2022/08/22 02:35:25;;;;;;;0.20;0.00;;;23.10;99.90;;;;;;26170857;22;20163;-71
2022/08/22 02:45:43;;;;;;;0.20;0.00;;;23.10;99.90;;;;;;26143884;22;20194;-72
2022/08/22 02:55:54;;;;;;;0.20;0.00;;;23.10;99.90;;;;;;26143610;22;20178;-72
2022/08/22 03:06:02;;;;;;;0.20;0.00;;;23.20;99.90;;;;;;26169816;22;20194;-70
2022/08/22 03:16:12;;;;;;;0.20;0.00;;;23.30;99.90;;;;;;26169004;22;20191;-70
2022/08/22 03:26:26;;;;;;;0.20;0.00;;;23.10;99.90;;;;;;26171649;22;20187;-72
2022/08/22 03:36:31;;;;;;;0.20;0.00;;;23.00;99.90;;;;;;26179230;22;20178;-71
2022/08/22 03:47:00;;;;;;;0.20;0.00;;;23.10;99.90;;;;;;26176448;22;20179;-71
2022/08/22 03:57:45;;;;;;;0.20;0.00;;;23.10;99.90;;;;;;26152768;22;20174;-70
2022/08/22 04:08:30;;;;;;;0.20;0.00;;;23.10;99.90;;;;;;26079205;22;20199;-70
2022/08/22 04:19:11;;;;;;;0.20;0.00;;;23.00;99.90;;;;;;26116716;22;20206;-70
2022/08/22 04:29:21;;;;;;;0.20;0.00;;;22.80;99.90;;;;;;26174917;22;20186;-71
2022/08/22 04:39:34;;;;;;;0.20;0.00;;;22.90;99.90;;;;;;26175654;22;20159;-68
2022/08/22 04:49:43;;;;;;;0.20;0.00;;;22.80;99.90;;;;;;26146969;22;20170;-70
2022/08/22 04:59:49;;;;;;;0.20;0.00;;;22.90;99.90;;;;;;26173888;22;20180;-70
2022/08/22 05:09:59;;;;;;;0.20;0.00;;;23.00;99.90;;;;;;26174251;22;20195;-71
2022/08/22 05:20:21;;;;;;;0.20;0.00;;;23.20;99.90;;;;;;26173603;22;20190;-71
2022/08/22 05:30:30;;;;;;;0.20;0.00;;;23.40;99.90;;;;;;26173172;22;20163;-69
2022/08/22 05:40:36;;;;;;;0.20;0.00;;;23.40;99.90;;;;;;26166429;22;20186;-69
2022/08/22 05:50:46;;;;;;;0.20;0.00;;;23.40;99.90;;;;;;26170225;22;20179;-70
2022/08/22 06:00:59;;;;;;;0.20;0.00;;;23.70;99.90;;;;;;26170946;22;20179;-70
2022/08/22 06:11:12;;;;;;;0.20;0.00;;;23.80;99.90;;;;;;26138459;22;20191;-70
2022/08/22 06:21:21;;;;;;;0.20;0.00;;;24.20;99.90;;;;;;26166946;22;20258;-70
2022/08/22 06:31:31;;;;;;;0.20;0.00;;;24.90;99.90;;;;;;26143957;22;20172;-72
2022/08/22 06:41:52;;;;;;;0.20;0.00;;;25.40;99.90;;;;;;26140835;22;20291;-70
2022/08/22 06:52:01;;;;;;;0.20;0.00;;;25.30;99.90;;;;;;26142269;22;20171;-71
2022/08/22 07:02:16;;;;;;;0.20;0.00;;;25.60;99.90;;;;;;26164250;22;20183;-71
2022/08/22 07:12:29;;;;;;;0.20;0.00;;;25.70;99.90;;;;;;26165303;22;20195;-71
2022/08/22 07:22:36;;;;;;;0.20;0.00;;;25.80;99.90;;;;;;26165369;22;20198;-71
2022/08/22 07:32:51;;;;;;;0.20;0.00;;;26.00;99.90;;;;;;26168346;22;20158;-70
2022/08/22 07:43:03;;;;;;;0.20;0.00;;;26.00;99.90;;;;;;26166901;22;20183;-70
2022/08/22 07:53:18;;;;;;;0.20;0.00;;;26.40;99.90;;;;;;26137253;22;20179;-70
2022/08/22 08:03:25;;;;;;;0.20;0.00;;;26.50;99.90;;;;;;26166008;22;20192;-71
2022/08/22 08:13:35;;;;;;;0.20;0.00;;;26.50;99.90;;;;;;26168356;22;20206;-70
2022/08/22 08:23:44;;;;;;;0.20;0.00;;;26.40;99.90;;;;;;26170889;22;20183;-71
2022/08/22 08:33:57;;;;;;;0.20;0.00;;;26.80;99.90;;;;;;26172107;22;20165;-71
2022/08/22 08:44:07;;;;;;;0.20;0.00;;;27.10;99.90;;;;;;26145848;22;20209;-70
2022/08/22 08:54:33;;;;;;;0.20;0.00;;;27.30;99.90;;;;;;26172849;22;20174;-71
2022/08/22 09:05:11;;;;;;;0.20;0.00;;;27.30;99.90;;;;;;26170862;22;20199;-71
2022/08/22 09:15:37;;;;;;;0.20;0.00;;;27.80;99.90;;;;;;26170062;22;20183;-72
2022/08/22 09:25:44;;;;;;;0.20;0.00;;;27.80;99.90;;;;;;26142485;22;20179;-71
2022/08/22 09:36:02;;;;;;;0.20;0.00;;;28.30;99.90;;;;;;26167495;22;20179;-70
2022/08/22 09:46:14;;;;;;;0.20;0.00;;;28.10;99.90;;;;;;26138963;22;20250;-71
2022/08/22 09:56:31;;;;;;;0.20;0.00;;;28.10;99.90;;;;;;26166096;22;20174;-71
2022/08/22 10:06:45;;;;;;;0.20;0.00;;;28.70;99.90;;;;;;26168912;22;20210;-70
2022/08/22 10:17:03;;;;;;;0.20;0.00;;;28.40;99.90;;;;;;26166042;22;20215;-71
2022/08/22 10:27:14;;;;;;;0.20;0.00;;;28.20;99.90;;;;;;26168645;22;20206;-71
2022/08/22 10:37:26;;;;;;;0.20;0.00;;;28.70;99.90;;;;;;26139487;22;20167;-70
2022/08/22 10:47:38;;;;;;;0.20;0.00;;;28.40;99.90;;;;;;26166042;22;20213;-71
2022/08/22 10:58:08;;;;;;;0.20;0.00;;;29.00;99.90;;;;;;26166252;22;20159;-71
2022/08/22 11:08:39;;;;;;;0.20;0.00;;;29.60;99.90;;;;;;26131222;22;20207;-72
2022/08/22 11:19:12;;;;;;;0.20;0.00;;;30.80;99.90;;;;;;26165959;22;20178;-72
2022/08/22 11:29:32;;;;;;;0.20;0.00;;;31.70;99.90;;;;;;26164100;22;20212;-70
2022/08/22 11:39:45;;;;;;;0.20;0.00;;;31.60;99.90;;;;;;26135691;22;20193;-71
2022/08/22 11:49:56;;;;;;;0.20;0.00;;;30.10;99.90;;;;;;26169194;22;20179;-70
2022/08/22 12:00:15;;;;;;;0.20;0.00;;;30.40;99.90;;;;;;26146886;22;20178;-72
2022/08/22 12:10:32;;;;;;;0.20;0.00;;;31.90;99.90;;;;;;26170829;22;20232;-70
2022/08/22 12:21:08;;;;;;;0.20;0.00;;;32.50;99.90;;;;;;26143067;22;20177;-69
2022/08/22 12:31:20;;;;;;;0.20;0.00;;;32.90;99.90;;;;;;26170701;22;20163;-70
2022/08/22 12:42:13;;;;;;;0.20;0.00;;;33.00;99.90;;;;;;26142497;22;20247;-71
2022/08/22 12:52:30;;;;;;;0.20;0.00;;;33.30;99.90;;;;;;26142398;22;20172;-72
2022/08/22 13:02:40;;;;;;;0.20;0.00;;;33.10;99.90;;;;;;26141868;22;20766;-72
2022/08/22 13:12:47;;;;;;;0.20;0.00;;;32.30;99.90;;;;;;26168141;22;20187;-72
2022/08/22 13:22:54;;;;;;;0.20;0.00;;;34.70;99.90;;;;;;26170542;22;20195;-71
2022/08/22 13:33:05;;;;;;;0.20;0.00;;;34.80;99.90;;;;;;26168729;22;20163;-72
2022/08/22 13:43:20;;;;;;;0.20;0.00;;;34.70;99.90;;;;;;26170675;22;20183;-72
2022/08/22 13:53:32;;;;;;;0.20;0.00;;;35.10;99.90;;;;;;26139746;22;20167;-71
2022/08/22 14:03:45;;;;;;;0.20;0.00;;;36.00;99.90;;;;;;26138888;22;20194;-70
2022/08/22 14:13:58;;;;;;;0.20;0.00;;;34.50;99.90;;;;;;26165074;22;20203;-71
2022/08/22 14:24:10;;;;;;;0.20;0.00;;;34.10;99.90;;;;;;26167564;22;20257;-71
2022/08/22 14:34:15;;;;;;;0.20;0.00;;;35.50;99.90;;;;;;26168703;22;20177;-72
2022/08/22 14:44:26;;;;;;;0.20;0.00;;;35.70;99.90;;;;;;26166529;22;20183;-72
2022/08/22 14:54:32;;;;;;;0.20;0.00;;;36.00;99.90;;;;;;26167808;22;20156;-71
2022/08/22 15:04:39;;;;;;;0.20;0.00;;;35.50;99.90;;;;;;26166440;22;20214;-71
2022/08/22 15:14:47;;;;;;;0.20;0.00;;;34.20;99.90;;;;;;26165197;22;20191;-71
2022/08/22 15:25:00;;;;;;;0.20;0.00;;;34.30;99.90;;;;;;26170624;22;20187;-70
2022/08/22 15:35:07;;;;;;;0.20;0.00;;;33.60;99.90;;;;;;26148016;22;20171;-69
2022/08/22 15:45:28;;;;;;;0.20;0.00;;;32.40;99.90;;;;;;26171753;22;20199;-71
2022/08/22 15:55:34;;;;;;;0.20;0.00;;;31.90;99.90;;;;;;26173141;22;20171;-72
2022/08/22 16:05:49;;;;;;;0.20;0.00;;;30.90;99.90;;;;;;26142978;22;20203;-71
2022/08/22 21:00:33;;;;;;;0.20;0.00;;;26.10;99.90;;;;;;26153588;22;20191;-69
2022/08/22 21:21:12;;;;;;;0.20;0.00;;;25.90;99.90;;;;;;26167825;22;20163;-68
2022/08/22 21:31:24;;;;;;;0.20;0.00;;;26.00;99.90;;;;;;26166509;22;20184;-69
2022/08/22 21:41:34;;;;;;;0.20;0.00;;;25.80;99.90;;;;;;26166636;22;20455;-69
2022/08/22 21:51:42;;;;;;;0.20;0.00;;;25.90;99.90;;;;;;26167546;22;20194;-70
2022/08/22 22:01:48;;;;;;;0.20;0.00;;;25.80;99.90;;;;;;26166928;22;20184;-69
2022/08/22 22:11:51;;;;;;;0.20;0.00;;;25.60;99.90;;;;;;26143169;22;20239;-69
2022/08/22 22:21:57;;;;;;;0.20;0.00;;;25.60;99.90;;;;;;26169165;22;20163;-69
2022/08/22 22:32:00;;;;;;;0.20;0.00;;;25.30;99.90;;;;;;26170257;22;20174;-68
2022/08/22 22:42:06;;;;;;;0.20;0.00;;;25.00;99.90;;;;;;26169590;22;20182;-67
2022/08/22 22:52:10;;;;;;;0.20;0.00;;;24.90;99.90;;;;;;26169164;22;20166;-70
2022/08/22 23:02:17;;;;;;;0.20;0.00;;;24.80;99.90;;;;;;26169012;22;20195;-69
2022/08/22 23:12:21;;;;;;;0.20;0.00;;;24.70;99.90;;;;;;26169433;22;20195;-69
2022/08/22 23:22:28;;;;;;;0.20;0.10;;;24.50;99.90;;;;;;26141383;22;20183;-68
2022/08/22 23:32:32;;;;;;;0.20;0.00;;;24.40;99.90;;;;;;26141977;22;20164;-70
2022/08/22 23:42:38;;;;;;;0.20;0.00;;;24.30;99.90;;;;;;26143144;22;20187;-69
2022/08/22 23:52:42;;;;;;;0.20;0.00;;;24.40;99.90;;;;;;26176602;22;20207;-70
